sensor_id;sensor_type;location;lat;lon;timestamp;pressure;altitude;pressure_sealevel;temperature;humidity
6038;BME280;3047;42.600;23.470;2022-08-24T00:01:26;92862.69;;;18.10;100.00
6038;BME280;3047;42.600;23.470;2022-08-24T00:03:53;92859.59;;;18.04;100.00
6038;BME280;3047;42.600;23.470;2022-08-24T00:06:22;92861.25;;;18.06;100.00
6038;BME280;3047;42.600;23.470;2022-08-24T00:08:51;92853.41;;;17.94;100.00
6038;BME280;3047;42.600;23.470;2022-08-24T00:11:18;92857.41;;;17.98;100.00
6038;BME280;3047;42.600;23.470;2022-08-24T00:13:45;92855.78;;;17.97;100.00
6038;BME280;3047;42.600;23.470;2022-08-24T00:16:13;92853.75;;;18.02;100.00
6038;BME280;3047;42.600;23.470;2022-08-24T00:18:42;92854.84;;;17.98;100.00
6038;BME280;3047;42.600;23.470;2022-08-24T00:21:09;92863.09;;;17.89;100.00
6038;BME280;3047;42.600;23.470;2022-08-24T00:23:36;92851.59;;;17.82;100.00
6038;BME280;3047;42.600;23.470;2022-08-24T00:26:04;92843.38;;;17.63;100.00
6038;BME280;3047;42.600;23.470;2022-08-24T00:28:31;92868.34;;;17.72;100.00
6038;BME280;3047;42.600;23.470;2022-08-24T00:30:58;92885.53;;;17.84;100.00
6038;BME280;3047;42.600;23.470;2022-08-24T00:33:25;92876.03;;;17.86;100.00
6038;BME280;3047;42.600;23.470;2022-08-24T00:35:53;92883.25;;;17.79;100.00
6038;BME280;3047;42.600;23.470;2022-08-24T00:38:20;92882.06;;;17.71;100.00
6038;BME280;3047;42.600;23.470;2022-08-24T00:40:48;92878.03;;;17.67;100.00
6038;BME280;3047;42.600;23.470;2022-08-24T00:43:17;92867.88;;;17.65;100.00
6038;BME280;3047;42.600;23.470;2022-08-24T00:45:47;92886.25;;;17.72;100.00
6038;BME280;3047;42.600;23.470;2022-08-24T00:48:19;92892.84;;;17.76;100.00
6038;BME280;3047;42.600;23.470;2022-08-24T00:50:52;92892.84;;;17.76;100.00
6038;BME280;3047;42.600;23.470;2022-08-24T00:53:23;92899.19;;;17.69;100.00
6038;BME280;3047;42.600;23.470;2022-08-24T00:55:53;92912.50;;;17.74;100.00
6038;BME280;3047;42.600;23.470;2022-08-24T00:58:26;92908.81;;;17.79;100.00
6038;BME280;3047;42.600;23.470;2022-08-24T01:01:01;92903.88;;;17.76;100.00
6038;BME280;3047;42.600;23.470;2022-08-24T01:03:28;92921.41;;;17.83;100.00
6038;BME280;3047;42.600;23.470;2022-08-24T01:05:57;92924.56;;;17.72;100.00
6038;BME280;3047;42.600;23.470;2022-08-24T01:08:25;92921.66;;;17.78;100.00
6038;BME280;3047;42.600;23.470;2022-08-24T01:10:54;92907.91;;;17.81;100.00
6038;BME280;3047;42.600;23.470;2022-08-24T01:13:22;92929.53;;;17.89;100.00
6038;BME280;3047;42.600;23.470;2022-08-24T01:15:53;92929.69;;;17.86;100.00
6038;BME280;3047;42.600;23.470;2022-08-24T01:18:22;92938.28;;;17.85;100.00
6038;BME280;3047;42.600;23.470;2022-08-24T01:21:13;92935.06;;;17.82;100.00
6038;BME280;3047;42.600;23.470;2022-08-24T01:23:43;92928.50;;;17.77;100.00
6038;BME280;3047;42.600;23.470;2022-08-24T01:26:14;92894.06;;;17.54;100.00
6038;BME280;3047;42.600;23.470;2022-08-24T01:28:44;92929.97;;;17.82;100.00
6038;BME280;3047;42.600;23.470;2022-08-24T01:31:11;92933.09;;;17.87;100.00
6038;BME280;3047;42.600;23.470;2022-08-24T01:33:38;92928.88;;;17.86;100.00
6038;BME280;3047;42.600;23.470;2022-08-24T01:36:10;92929.44;;;17.91;100.00
6038;BME280;3047;42.600;23.470;2022-08-24T01:38:41;92905.03;;;17.71;100.00
6038;BME280;3047;42.600;23.470;2022-08-24T01:41:08;92949.78;;;17.92;100.00
6038;BME280;3047;42.600;23.470;2022-08-24T01:43:35;92953.06;;;17.94;100.00
6038;BME280;3047;42.600;23.470;2022-08-24T01:46:02;92929.97;;;17.82;100.00
6038;BME280;3047;42.600;23.470;2022-08-24T01:48:29;92945.81;;;17.72;100.00
6038;BME280;3047;42.600;23.470;2022-08-24T01:50:56;92950.50;;;17.80;100.00
6038;BME280;3047;42.600;23.470;2022-08-24T01:53:23;92918.03;;;17.52;100.00
6038;BME280;3047;42.600;23.470;2022-08-24T01:55:51;92912.13;;;17.51;100.00
6038;BME280;3047;42.600;23.470;2022-08-24T01:58:18;92943.94;;;17.76;100.00
6038;BME280;3047;42.600;23.470;2022-08-24T02:00:45;92938.16;;;17.72;100.00
6038;BME280;3047;42.600;23.470;2022-08-24T02:03:12;92952.50;;;17.75;100.00
6038;BME280;3047;42.600;23.470;2022-08-24T02:05:39;92928.91;;;17.55;100.00
6038;BME280;3047;42.600;23.470;2022-08-24T02:08:06;92949.28;;;17.71;100.00
6038;BME280;3047;42.600;23.470;2022-08-24T02:10:33;92945.25;;;17.67;100.00
6038;BME280;3047;42.600;23.470;2022-08-24T02:13:01;92955.22;;;17.72;100.00
6038;BME280;3047;42.600;23.470;2022-08-24T02:15:30;92960.91;;;17.77;100.00
6038;BME280;3047;42.600;23.470;2022-08-24T02:17:58;92957.66;;;17.73;100.00
6038;BME280;3047;42.600;23.470;2022-08-24T02:20:25;92971.44;;;17.87;100.00
6038;BME280;3047;42.600;23.470;2022-08-24T02:22:52;92959.38;;;17.89;100.00
6038;BME280;3047;42.600;23.470;2022-08-24T02:25:19;92968.94;;;17.85;100.00
6038;BME280;3047;42.600;23.470;2022-08-24T02:27:47;92965.09;;;17.78;100.00
6038;BME280;3047;42.600;23.470;2022-08-24T02:30:15;92964.38;;;17.76;100.00
6038;BME280;3047;42.600;23.470;2022-08-24T02:32:42;92968.38;;;17.80;100.00
6038;BME280;3047;42.600;23.470;2022-08-24T02:35:10;92961.13;;;17.72;100.00
6038;BME280;3047;42.600;23.470;2022-08-24T02:37:37;92955.31;;;17.70;100.00
6038;BME280;3047;42.600;23.470;2022-08-24T02:40:06;92952.94;;;17.67;100.00
6038;BME280;3047;42.600;23.470;2022-08-24T02:42:34;92928.97;;;17.54;100.00
6038;BME280;3047;42.600;23.470;2022-08-24T02:45:01;92962.97;;;17.70;100.00
6038;BME280;3047;42.600;23.470;2022-08-24T02:47:30;92905.94;;;17.25;100.00
6038;BME280;3047;42.600;23.470;2022-08-24T02:49:57;92940.13;;;17.53;100.00
6038;BME280;3047;42.600;23.470;2022-08-24T02:52:24;92959.84;;;17.65;100.00
6038;BME280;3047;42.600;23.470;2022-08-24T02:54:51;92952.72;;;17.56;100.00
6038;BME280;3047;42.600;23.470;2022-08-24T02:57:17;92950.03;;;17.43;100.00
6038;BME280;3047;42.600;23.470;2022-08-24T02:59:44;92961.63;;;17.49;100.00
6038;BME280;3047;42.600;23.470;2022-08-24T03:02:11;92971.69;;;17.52;100.00
6038;BME280;3047;42.600;23.470;2022-08-24T03:04:39;92974.06;;;17.55;100.00
6038;BME280;3047;42.600;23.470;2022-08-24T03:07:06;92935.31;;;17.33;100.00
6038;BME280;3047;42.600;23.470;2022-08-24T03:09:33;92973.88;;;17.58;100.00
6038;BME280;3047;42.600;23.470;2022-08-24T03:11:59;92970.16;;;17.64;100.00
6038;BME280;3047;42.600;23.470;2022-08-24T03:14:26;92958.09;;;17.51;100.00
6038;BME280;3047;42.600;23.470;2022-08-24T03:16:53;92968.75;;;17.58;100.00
6038;BME280;3047;42.600;23.470;2022-08-24T03:19:20;92952.88;;;17.53;100.00
6038;BME280;3047;42.600;23.470;2022-08-24T03:21:48;92959.94;;;17.64;100.00
6038;BME280;3047;42.600;23.470;2022-08-24T03:24:15;92976.38;;;17.74;100.00
6038;BME280;3047;42.600;23.470;2022-08-24T03:26:41;92956.41;;;17.66;100.00
6038;BME280;3047;42.600;23.470;2022-08-24T03:29:08;92969.22;;;17.81;100.00
6038;BME280;3047;42.600;23.470;2022-08-24T03:31:35;92957.88;;;17.70;100.00
6038;BME280;3047;42.600;23.470;2022-08-24T03:34:02;92895.28;;;17.33;100.00
6038;BME280;3047;42.600;23.470;2022-08-24T03:36:28;92939.56;;;17.62;100.00
6038;BME280;3047;42.600;23.470;2022-08-24T03:38:57;92974.59;;;17.76;100.00
6038;BME280;3047;42.600;23.470;2022-08-24T03:41:23;92951.09;;;17.69;100.00
6038;BME280;3047;42.600;23.470;2022-08-24T03:43:51;92973.59;;;17.78;100.00
6038;BME280;3047;42.600;23.470;2022-08-24T03:46:22;92984.91;;;17.74;100.00
6038;BME280;3047;42.600;23.470;2022-08-24T03:48:50;92971.88;;;17.63;100.00
6038;BME280;3047;42.600;23.470;2022-08-24T03:51:18;92975.91;;;17.67;100.00
6038;BME280;3047;42.600;23.470;2022-08-24T03:53:47;92976.84;;;17.66;100.00
6038;BME280;3047;42.600;23.470;2022-08-24T03:56:16;92942.28;;;17.45;100.00
6038;BME280;3047;42.600;23.470;2022-08-24T03:58:44;92985.31;;;17.67;100.00
6038;BME280;3047;42.600;23.470;2022-08-24T04:01:11;92987.47;;;17.74;100.00
6038;BME280;3047;42.600;23.470;2022-08-24T04:03:42;92986.84;;;17.69;100.00
6038;BME280;3047;42.600;23.470;2022-08-24T04:06:10;92986.78;;;17.71;100.00
6038;BME280;3047;42.600;23.470;2022-08-24T04:08:38;92956.00;;;17.58;100.00
6038;BME280;3047;42.600;23.470;2022-08-24T04:11:09;92984.03;;;17.74;100.00
6038;BME280;3047;42.600;23.470;2022-08-24T04:13:37;92996.31;;;17.83;100.00
6038;BME280;3047;42.600;23.470;2022-08-24T04:16:05;92943.06;;;17.61;100.00
6038;BME280;3047;42.600;23.470;2022-08-24T04:18:32;92987.31;;;17.92;100.00
6038;BME280;3047;42.600;23.470;2022-08-24T04:20:59;92965.72;;;17.82;100.00
6038;BME280;3047;42.600;23.470;2022-08-24T04:23:26;92948.94;;;17.77;100.00
6038;BME280;3047;42.600;23.470;2022-08-24T04:25:53;92981.84;;;18.12;100.00
6038;BME280;3047;42.600;23.470;2022-08-24T04:28:20;92985.59;;;18.21;100.00
6038;BME280;3047;42.600;23.470;2022-08-24T04:30:49;92977.44;;;18.14;100.00
6038;BME280;3047;42.600;23.470;2022-08-24T04:33:17;92988.31;;;18.32;100.00
6038;BME280;3047;42.600;23.470;2022-08-24T04:35:45;92997.38;;;18.23;100.00
6038;BME280;3047;42.600;23.470;2022-08-24T04:38:14;92997.38;;;18.23;100.00
6038;BME280;3047;42.600;23.470;2022-08-24T04:40:42;92999.00;;;18.24;100.00
6038;BME280;3047;42.600;23.470;2022-08-24T04:43:09;92998.19;;;18.24;100.00
6038;BME280;3047;42.600;23.470;2022-08-24T04:45:38;93002.09;;;18.29;100.00
6038;BME280;3047;42.600;23.470;2022-08-24T04:48:07;93004.69;;;18.44;100.00
6038;BME280;3047;42.600;23.470;2022-08-24T04:50:37;92964.38;;;18.19;100.00
6038;BME280;3047;42.600;23.470;2022-08-24T04:53:06;92997.47;;;18.36;100.00
6038;BME280;3047;42.600;23.470;2022-08-24T04:55:33;92996.09;;;18.45;100.00
6038;BME280;3047;42.600;23.470;2022-08-24T04:58:08;92849.63;;;17.57;100.00
6038;BME280;3047;42.600;23.470;2022-08-24T05:00:34;92967.06;;;18.32;100.00
6038;BME280;3047;42.600;23.470;2022-08-24T05:03:01;92989.59;;;18.53;100.00
6038;BME280;3047;42.600;23.470;2022-08-24T05:05:29;92995.91;;;18.48;100.00
6038;BME280;3047;42.600;23.470;2022-08-24T05:07:57;92986.94;;;18.55;100.00
6038;BME280;3047;42.600;23.470;2022-08-24T05:10:24;92918.38;;;18.19;100.00
6038;BME280;3047;42.600;23.470;2022-08-24T05:12:50;92990.59;;;18.51;100.00
6038;BME280;3047;42.600;23.470;2022-08-24T05:15:17;92983.84;;;18.50;100.00
6038;BME280;3047;42.600;23.470;2022-08-24T05:17:44;92999.19;;;18.64;100.00
6038;BME280;3047;42.600;23.470;2022-08-24T05:20:11;92986.78;;;18.72;100.00
6038;BME280;3047;42.600;23.470;2022-08-24T05:22:39;93001.38;;;18.70;100.00
6038;BME280;3047;42.600;23.470;2022-08-24T05:25:06;92973.25;;;18.56;100.00
6038;BME280;3047;42.600;23.470;2022-08-24T05:27:33;92993.41;;;18.75;100.00
6038;BME280;3047;42.600;23.470;2022-08-24T05:30:00;92994.50;;;18.85;100.00
6038;BME280;3047;42.600;23.470;2022-08-24T05:32:27;92916.63;;;18.48;100.00
6038;BME280;3047;42.600;23.470;2022-08-24T05:34:54;92992.19;;;18.95;100.00
6038;BME280;3047;42.600;23.470;2022-08-24T05:37:21;92985.44;;;18.94;100.00
6038;BME280;3047;42.600;23.470;2022-08-24T05:39:50;92983.63;;;18.96;100.00
6038;BME280;3047;42.600;23.470;2022-08-24T05:42:17;92988.44;;;19.00;100.00
6038;BME280;3047;42.600;23.470;2022-08-24T05:44:44;92992.25;;;19.08;100.00
6038;BME280;3047;42.600;23.470;2022-08-24T05:47:10;92936.13;;;18.77;100.00
6038;BME280;3047;42.600;23.470;2022-08-24T05:49:38;92978.06;;;19.16;100.00
6038;BME280;3047;42.600;23.470;2022-08-24T05:52:04;92990.34;;;19.24;100.00
6038;BME280;3047;42.600;23.470;2022-08-24T05:54:32;92995.81;;;19.32;100.00
6038;BME280;3047;42.600;23.470;2022-08-24T05:57:00;92982.94;;;19.34;100.00
6038;BME280;3047;42.600;23.470;2022-08-24T05:59:29;92972.06;;;19.30;100.00
6038;BME280;3047;42.600;23.470;2022-08-24T06:01:56;92961.50;;;19.35;100.00
6038;BME280;3047;42.600;23.470;2022-08-24T06:04:22;92868.84;;;18.75;100.00
6038;BME280;3047;42.600;23.470;2022-08-24T06:06:49;92993.44;;;19.56;100.00
6038;BME280;3047;42.600;23.470;2022-08-24T06:09:16;92973.22;;;19.51;100.00
6038;BME280;3047;42.600;23.470;2022-08-24T06:11:43;92985.81;;;19.69;100.00
6038;BME280;3047;42.600;23.470;2022-08-24T06:14:15;92983.97;;;19.71;100.00
6038;BME280;3047;42.600;23.470;2022-08-24T06:16:44;92981.28;;;19.72;100.00
6038;BME280;3047;42.600;23.470;2022-08-24T06:19:14;92987.59;;;19.81;100.00
6038;BME280;3047;42.600;23.470;2022-08-24T06:21:42;92984.41;;;19.90;100.00
6038;BME280;3047;42.600;23.470;2022-08-24T06:24:11;92985.66;;;19.97;100.00
6038;BME280;3047;42.600;23.470;2022-08-24T06:26:40;92981.72;;;20.05;100.00
6038;BME280;3047;42.600;23.470;2022-08-24T06:29:25;92984.59;;;20.13;100.00
6038;BME280;3047;42.600;23.470;2022-08-24T06:31:52;92926.66;;;19.85;100.00
6038;BME280;3047;42.600;23.470;2022-08-24T06:34:21;92985.66;;;20.23;100.00
6038;BME280;3047;42.600;23.470;2022-08-24T06:36:48;92967.59;;;20.12;100.00
6038;BME280;3047;42.600;23.470;2022-08-24T06:39:15;92989.13;;;20.22;100.00
6038;BME280;3047;42.600;23.470;2022-08-24T06:41:42;92991.91;;;20.32;100.00
6038;BME280;3047;42.600;23.470;2022-08-24T06:44:09;92994.06;;;20.38;100.00
6038;BME280;3047;42.600;23.470;2022-08-24T06:46:37;92996.00;;;20.34;100.00
6038;BME280;3047;42.600;23.470;2022-08-24T06:49:04;93006.78;;;20.39;100.00
6038;BME280;3047;42.600;23.470;2022-08-24T06:51:31;92978.38;;;20.30;100.00
6038;BME280;3047;42.600;23.470;2022-08-24T06:53:57;93006.34;;;20.45;100.00
6038;BME280;3047;42.600;23.470;2022-08-24T06:56:24;93000.38;;;20.45;100.00
6038;BME280;3047;42.600;23.470;2022-08-24T06:58:51;93000.19;;;20.48;100.00
6038;BME280;3047;42.600;23.470;2022-08-24T07:01:22;92989.94;;;20.48;100.00
6038;BME280;3047;42.600;23.470;2022-08-24T07:03:51;92991.41;;;20.52;100.00
6038;BME280;3047;42.600;23.470;2022-08-24T07:06:19;93000.09;;;20.49;100.00
6038;BME280;3047;42.600;23.470;2022-08-24T07:08:45;92994.16;;;20.49;100.00
6038;BME280;3047;42.600;23.470;2022-08-24T07:11:14;93018.47;;;20.69;100.00
6038;BME280;3047;42.600;23.470;2022-08-24T07:13:42;93014.75;;;20.73;100.00
6038;BME280;3047;42.600;23.470;2022-08-24T07:16:09;93024.00;;;20.76;100.00
6038;BME280;3047;42.600;23.470;2022-08-24T07:18:36;93001.00;;;20.61;100.00
6038;BME280;3047;42.600;23.470;2022-08-24T07:21:05;92977.00;;;20.49;100.00
6038;BME280;3047;42.600;23.470;2022-08-24T07:23:33;93026.34;;;20.91;100.00
6038;BME280;3047;42.600;23.470;2022-08-24T07:26:04;93026.03;;;20.96;100.00
6038;BME280;3047;42.600;23.470;2022-08-24T07:28:34;93025.28;;;21.07;100.00
6038;BME280;3047;42.600;23.470;2022-08-24T07:31:02;93024.31;;;21.20;100.00
6038;BME280;3047;42.600;23.470;2022-08-24T07:33:28;93006.66;;;21.16;100.00
6038;BME280;3047;42.600;23.470;2022-08-24T07:35:55;93021.53;;;21.23;100.00
6038;BME280;3047;42.600;23.470;2022-08-24T07:38:24;93007.47;;;21.16;100.00
6038;BME280;3047;42.600;23.470;2022-08-24T07:40:52;93025.38;;;21.42;100.00
6038;BME280;3047;42.600;23.470;2022-08-24T07:43:19;93020.72;;;21.47;100.00
6038;BME280;3047;42.600;23.470;2022-08-24T07:45:47;92984.72;;;21.36;100.00
6038;BME280;3047;42.600;23.470;2022-08-24T07:48:14;92977.47;;;21.41;100.00
6038;BME280;3047;42.600;23.470;2022-08-24T07:50:41;93021.22;;;21.76;100.00
6038;BME280;3047;42.600;23.470;2022-08-24T07:53:08;93014.00;;;21.92;100.00
6038;BME280;3047;42.600;23.470;2022-08-24T07:55:36;93014.00;;;22.16;100.00
6038;BME280;3047;42.600;23.470;2022-08-24T07:58:03;93027.41;;;22.20;100.00
6038;BME280;3047;42.600;23.470;2022-08-24T08:00:30;93012.50;;;22.36;100.00
6038;BME280;3047;42.600;23.470;2022-08-24T08:02:56;92969.91;;;22.21;100.00
6038;BME280;3047;42.600;23.470;2022-08-24T08:05:23;93012.97;;;22.75;100.00
6038;BME280;3047;42.600;23.470;2022-08-24T08:07:51;93018.38;;;23.06;100.00
6038;BME280;3047;42.600;23.470;2022-08-24T08:10:18;93007.94;;;23.07;100.00
6038;BME280;3047;42.600;23.470;2022-08-24T08:12:47;93032.91;;;23.50;100.00
6038;BME280;3047;42.600;23.470;2022-08-24T08:15:14;92952.84;;;23.19;100.00
6038;BME280;3047;42.600;23.470;2022-08-24T08:17:40;93029.19;;;23.86;97.78
6038;BME280;3047;42.600;23.470;2022-08-24T08:20:09;92992.53;;;23.72;98.31
6038;BME280;3047;42.600;23.470;2022-08-24T08:22:36;92999.63;;;24.11;100.00
6038;BME280;3047;42.600;23.470;2022-08-24T08:25:20;92986.25;;;24.27;100.00
6038;BME280;3047;42.600;23.470;2022-08-24T08:27:48;93021.75;;;24.86;98.02
6038;BME280;3047;42.600;23.470;2022-08-24T08:30:15;93021.69;;;25.07;93.23
6038;BME280;3047;42.600;23.470;2022-08-24T08:32:42;93022.91;;;25.03;94.98
6038;BME280;3047;42.600;23.470;2022-08-24T08:35:08;93020.16;;;25.26;96.18
6038;BME280;3047;42.600;23.470;2022-08-24T08:37:35;93005.44;;;25.36;94.20
6038;BME280;3047;42.600;23.470;2022-08-24T08:40:05;93030.25;;;25.68;92.91
6038;BME280;3047;42.600;23.470;2022-08-24T08:42:39;93017.25;;;25.79;89.53
6038;BME280;3047;42.600;23.470;2022-08-24T08:45:30;92999.25;;;25.97;90.18
6038;BME280;3047;42.600;23.470;2022-08-24T08:48:19;93025.81;;;26.08;91.39
6038;BME280;3047;42.600;23.470;2022-08-24T08:51:08;93029.22;;;25.99;91.50
6038;BME280;3047;42.600;23.470;2022-08-24T08:54:12;93027.16;;;26.12;89.42
6038;BME280;3047;42.600;23.470;2022-08-24T08:56:47;93033.81;;;26.34;89.57
6038;BME280;3047;42.600;23.470;2022-08-24T08:59:28;93032.88;;;26.45;90.95
6038;BME280;3047;42.600;23.470;2022-08-24T09:02:15;93011.97;;;26.66;88.09
6038;BME280;3047;42.600;23.470;2022-08-24T09:04:57;93031.69;;;26.86;89.27
6038;BME280;3047;42.600;23.470;2022-08-24T09:07:40;93032.25;;;27.08;87.47
6038;BME280;3047;42.600;23.470;2022-08-24T09:10:46;93020.69;;;27.30;83.95
6038;BME280;3047;42.600;23.470;2022-08-24T09:13:31;93028.25;;;27.23;83.74
6038;BME280;3047;42.600;23.470;2022-08-24T09:16:17;93018.00;;;27.22;80.69
6038;BME280;3047;42.600;23.470;2022-08-24T09:18:58;93015.28;;;27.23;78.58
6038;BME280;3047;42.600;23.470;2022-08-24T09:21:40;93018.50;;;27.35;80.71
6038;BME280;3047;42.600;23.470;2022-08-24T09:24:22;93021.22;;;27.33;82.55
6038;BME280;3047;42.600;23.470;2022-08-24T09:26:56;93017.16;;;27.31;81.20
6038;BME280;3047;42.600;23.470;2022-08-24T09:29:37;93006.47;;;27.34;82.90
6038;BME280;3047;42.600;23.470;2022-08-24T09:32:24;93009.03;;;27.44;80.09
6038;BME280;3047;42.600;23.470;2022-08-24T09:34:58;92981.88;;;27.20;80.14
6038;BME280;3047;42.600;23.470;2022-08-24T09:37:32;93008.06;;;27.45;80.54
6038;BME280;3047;42.600;23.470;2022-08-24T09:40:08;92972.56;;;27.45;80.83
6038;BME280;3047;42.600;23.470;2022-08-24T09:43:03;93010.00;;;27.60;81.04
6038;BME280;3047;42.600;23.470;2022-08-24T09:45:48;93002.22;;;27.60;80.14
6038;BME280;3047;42.600;23.470;2022-08-24T09:48:44;92994.34;;;27.70;81.00
6038;BME280;3047;42.600;23.470;2022-08-24T09:51:49;92991.91;;;27.69;77.24
6038;BME280;3047;42.600;23.470;2022-08-24T09:54:41;92974.19;;;27.46;81.30
6038;BME280;3047;42.600;23.470;2022-08-24T09:57:26;92975.06;;;27.37;79.91
6038;BME280;3047;42.600;23.470;2022-08-24T10:00:06;92963.72;;;27.38;77.46
6038;BME280;3047;42.600;23.470;2022-08-24T10:02:57;92968.81;;;27.30;81.33
6038;BME280;3047;42.600;23.470;2022-08-24T10:05:30;92954.91;;;27.49;80.96
6038;BME280;3047;42.600;23.470;2022-08-24T10:08:06;92961.81;;;27.58;79.31
6038;BME280;3047;42.600;23.470;2022-08-24T10:10:43;92971.59;;;27.64;78.70
6038;BME280;3047;42.600;23.470;2022-08-24T10:13:24;92980.22;;;27.65;79.59
6038;BME280;3047;42.600;23.470;2022-08-24T10:16:06;92959.81;;;27.52;83.65
6038;BME280;3047;42.600;23.470;2022-08-24T10:18:48;92966.22;;;27.12;83.93
6038;BME280;3047;42.600;23.470;2022-08-24T10:21:33;92966.22;;;27.12;85.42
6038;BME280;3047;42.600;23.470;2022-08-24T10:24:30;92968.44;;;26.97;83.22
6038;BME280;3047;42.600;23.470;2022-08-24T10:27:17;92956.25;;;26.80;87.42
6038;BME280;3047;42.600;23.470;2022-08-24T10:30:01;92954.56;;;26.88;86.25
6038;BME280;3047;42.600;23.470;2022-08-24T10:32:41;92954.28;;;26.92;86.89
6038;BME280;3047;42.600;23.470;2022-08-24T10:35:13;92944.00;;;27.00;83.15
6038;BME280;3047;42.600;23.470;2022-08-24T10:38:21;92959.50;;;27.19;80.64
6038;BME280;3047;42.600;23.470;2022-08-24T10:41:29;92960.88;;;27.14;77.94
6038;BME280;3047;42.600;23.470;2022-08-24T10:44:25;92957.41;;;26.95;80.78
6038;BME280;3047;42.600;23.470;2022-08-24T10:46:57;92958.94;;;26.88;77.25
6038;BME280;3047;42.600;23.470;2022-08-24T10:55:37;92961.91;;;26.66;85.90
6038;BME280;3047;42.600;23.470;2022-08-24T11:01:29;92955.00;;;26.56;88.37
6038;BME280;3047;42.600;23.470;2022-08-24T11:04:00;92961.50;;;26.60;85.31
6038;BME280;3047;42.600;23.470;2022-08-24T11:06:30;92958.28;;;26.58;89.90
6038;BME280;3047;42.600;23.470;2022-08-24T11:09:01;92925.00;;;26.44;85.57
6038;BME280;3047;42.600;23.470;2022-08-24T11:11:32;92951.84;;;26.62;83.46
6038;BME280;3047;42.600;23.470;2022-08-24T11:14:01;92891.25;;;26.46;88.06
6038;BME280;3047;42.600;23.470;2022-08-24T11:16:33;92956.53;;;26.77;84.44
6038;BME280;3047;42.600;23.470;2022-08-24T11:19:03;92938.53;;;26.48;82.42
6038;BME280;3047;42.600;23.470;2022-08-24T11:21:41;92930.91;;;26.36;82.69
6038;BME280;3047;42.600;23.470;2022-08-24T11:24:13;92955.84;;;26.47;82.72
6038;BME280;3047;42.600;23.470;2022-08-24T11:26:52;92950.66;;;26.47;81.01
6038;BME280;3047;42.600;23.470;2022-08-24T11:29:21;92924.91;;;26.46;85.35
6038;BME280;3047;42.600;23.470;2022-08-24T11:31:50;92924.47;;;26.41;83.57
6038;BME280;3047;42.600;23.470;2022-08-24T11:34:30;92932.94;;;26.43;86.47
6038;BME280;3047;42.600;23.470;2022-08-24T11:36:57;92906.66;;;26.28;85.09
6038;BME280;3047;42.600;23.470;2022-08-24T11:39:28;92930.34;;;26.33;86.99
6038;BME280;3047;42.600;23.470;2022-08-24T11:41:59;92931.03;;;26.35;88.69
6038;BME280;3047;42.600;23.470;2022-08-24T11:44:37;92892.47;;;26.32;91.13
6038;BME280;3047;42.600;23.470;2022-08-24T11:47:39;92887.50;;;26.11;86.55
6038;BME280;3047;42.600;23.470;2022-08-24T11:50:20;92904.56;;;26.13;85.07
6038;BME280;3047;42.600;23.470;2022-08-24T11:52:56;92928.06;;;26.30;85.88
6038;BME280;3047;42.600;23.470;2022-08-24T11:55:30;92928.88;;;26.30;89.48
6038;BME280;3047;42.600;23.470;2022-08-24T11:58:02;92927.00;;;26.23;86.83
6038;BME280;3047;42.600;23.470;2022-08-24T12:00:43;92926.41;;;26.29;85.64
6038;BME280;3047;42.600;23.470;2022-08-24T12:06:12;92925.28;;;26.41;87.02
6038;BME280;3047;42.600;23.470;2022-08-24T12:08:45;92932.72;;;26.26;86.19
6038;BME280;3047;42.600;23.470;2022-08-24T12:11:28;92925.91;;;26.25;85.28
6038;BME280;3047;42.600;23.470;2022-08-24T12:14:02;92904.97;;;25.99;85.96
6038;BME280;3047;42.600;23.470;2022-08-24T12:16:35;92921.31;;;26.09;88.76
6038;BME280;3047;42.600;23.470;2022-08-24T12:19:13;92915.19;;;26.10;88.53
6038;BME280;3047;42.600;23.470;2022-08-24T12:21:45;92899.38;;;26.13;88.46
6038;BME280;3047;42.600;23.470;2022-08-24T12:24:17;92905.47;;;26.12;87.39
6038;BME280;3047;42.600;23.470;2022-08-24T12:26:48;92886.31;;;25.96;88.13
6038;BME280;3047;42.600;23.470;2022-08-24T12:29:21;92875.59;;;25.71;90.63
6038;BME280;3047;42.600;23.470;2022-08-24T12:31:51;92900.25;;;25.85;90.29
6038;BME280;3047;42.600;23.470;2022-08-24T12:34:28;92902.00;;;25.84;90.49
6038;BME280;3047;42.600;23.470;2022-08-24T12:37:01;92895.31;;;25.72;91.01
6038;BME280;3047;42.600;23.470;2022-08-24T12:39:37;92897.94;;;25.82;91.42
6038;BME280;3047;42.600;23.470;2022-08-24T12:42:07;92881.72;;;25.80;91.16
6038;BME280;3047;42.600;23.470;2022-08-24T12:44:44;92875.06;;;25.77;92.97
6038;BME280;3047;42.600;23.470;2022-08-24T12:47:20;92896.31;;;25.81;88.11
6038;BME280;3047;42.600;23.470;2022-08-24T12:49:53;92911.28;;;25.87;88.36
6038;BME280;3047;42.600;23.470;2022-08-24T12:52:47;92857.69;;;25.40;88.24
6038;BME280;3047;42.600;23.470;2022-08-24T12:55:32;92911.53;;;25.84;90.91
6038;BME280;3047;42.600;23.470;2022-08-24T12:58:04;92914.44;;;25.81;89.83
6038;BME280;3047;42.600;23.470;2022-08-24T13:00:41;92932.53;;;25.81;89.54
6038;BME280;3047;42.600;23.470;2022-08-24T13:03:24;92916.88;;;25.82;90.02
6038;BME280;3047;42.600;23.470;2022-08-24T13:05:55;92931.69;;;25.80;89.46
6038;BME280;3047;42.600;23.470;2022-08-24T13:08:34;92943.72;;;25.81;88.49
6038;BME280;3047;42.600;23.470;2022-08-24T13:11:05;92914.81;;;25.47;87.85
6038;BME280;3047;42.600;23.470;2022-08-24T13:13:44;92946.13;;;25.63;90.07
6038;BME280;3047;42.600;23.470;2022-08-24T13:16:47;92951.72;;;25.49;88.93
6038;BME280;3047;42.600;23.470;2022-08-24T13:19:30;92950.47;;;25.34;89.23
6038;BME280;3047;42.600;23.470;2022-08-24T13:22:00;92946.13;;;25.25;89.59
6038;BME280;3047;42.600;23.470;2022-08-24T13:24:54;92957.94;;;25.18;90.55
6038;BME280;3047;42.600;23.470;2022-08-24T13:27:47;92920.59;;;24.91;93.18
6038;BME280;3047;42.600;23.470;2022-08-24T13:33:28;92903.56;;;24.79;95.65
6038;BME280;3047;42.600;23.470;2022-08-24T13:36:08;92943.31;;;24.97;94.05
6038;BME280;3047;42.600;23.470;2022-08-24T13:39:00;92939.25;;;25.04;93.83
6038;BME280;3047;42.600;23.470;2022-08-24T13:41:51;92945.75;;;24.99;94.32
6038;BME280;3047;42.600;23.470;2022-08-24T13:44:27;92896.91;;;24.86;94.09
6038;BME280;3047;42.600;23.470;2022-08-24T13:47:08;92911.50;;;25.06;95.14